Time;durP1;ratioP1;P1;durP2;ratioP2;P2;SDS_P1;SDS_P2;PMS_P1;PMS_P2;Temp;Humidity;BMP_temperature;BMP_pressure;BME280_temperature;BME280_humidity;BME280_pressure;Samples;Min_cycle;Max_cycle;Signal;HPM_P1;HPM_P2
2023/04/30 04:01:45;;;;;;;1.27;0.50;;;11.30;99.90;;;;;;5308345;23;20501;-77
2023/04/30 04:04:14;;;;;;;0.87;0.87;;;;;;;;;;4902347;29;20445;-75
2023/04/30 04:06:43;;;;;;;1.43;1.33;;;11.10;99.90;;;;;;4899675;29;20507;-75
2023/04/30 04:09:11;;;;;;;0.60;0.40;;;11.10;99.90;;;;;;4903988;29;20442;-74
2023/04/30 04:11:39;;;;;;;0.60;0.10;;;11.10;99.90;;;;;;4896659;29;20478;-74
2023/04/30 04:14:06;;;;;;;0.70;0.50;;;11.10;99.90;;;;;;4889662;29;20446;-74
2023/04/30 04:16:34;;;;;;;0.70;0.50;;;11.10;99.90;;;;;;4885978;29;20478;-74
2023/04/30 04:19:05;;;;;;;0.80;0.67;;;;;;;;;;4884682;29;20526;-73
2023/04/30 04:21:33;;;;;;;0.60;0.10;;;11.00;99.90;;;;;;4883594;29;20526;-74
2023/04/30 04:24:07;;;;;;;1.33;1.23;;;11.00;99.90;;;;;;4879840;29;20450;-74
2023/04/30 04:26:35;;;;;;;0.60;0.10;;;11.00;99.90;;;;;;4882129;29;20443;-75
2023/04/30 04:29:04;;;;;;;1.20;0.77;;;11.00;99.90;;;;;;4881728;29;20465;-75
2023/04/30 04:31:32;;;;;;;0.80;0.50;;;11.00;99.90;;;;;;4881306;29;20491;-75
2023/04/30 04:34:03;;;;;;;1.93;1.80;;;11.00;99.90;;;;;;4926834;23;20482;-74
2023/04/30 04:36:33;;;;;;;0.83;0.83;;;10.90;99.90;;;;;;4907050;29;20495;-74
2023/04/30 04:39:01;;;;;;;1.67;0.53;;;10.80;99.90;;;;;;4907706;29;20459;-74
2023/04/30 04:41:29;;;;;;;1.43;1.33;;;10.90;99.90;;;;;;4908872;29;20486;-75
2023/04/30 04:43:57;;;;;;;0.60;0.20;;;10.80;99.90;;;;;;4900254;29;20455;-75
2023/04/30 04:46:27;;;;;;;0.70;0.20;;;10.70;99.90;;;;;;4892380;29;20478;-74
2023/04/30 04:48:55;;;;;;;0.60;0.10;;;10.80;99.90;;;;;;4884615;29;20485;-73
2023/04/30 04:51:23;;;;;;;1.23;1.13;;;10.80;99.90;;;;;;4884228;29;20479;-72
2023/04/30 04:53:52;;;;;;;1.80;1.70;;;10.70;99.90;;;;;;4890197;29;20487;-74
2023/04/30 04:56:20;;;;;;;0.60;0.10;;;10.70;99.90;;;;;;4879620;29;21038;-75
2023/04/30 04:58:48;;;;;;;0.60;0.10;;;10.70;99.90;;;;;;4876451;29;20539;-75
2023/04/30 05:01:16;;;;;;;2.10;1.13;;;10.70;99.90;;;;;;4886377;29;20459;-75
2023/04/30 05:03:44;;;;;;;2.70;1.50;;;10.70;99.90;;;;;;4886027;29;20458;-75
2023/04/30 05:06:12;;;;;;;0.60;0.10;;;10.70;99.90;;;;;;4884554;29;20491;-73
2023/04/30 05:08:40;;;;;;;0.67;0.47;;;10.70;99.90;;;;;;4882230;29;20468;-74
2023/04/30 05:11:09;;;;;;;1.00;0.60;;;10.70;99.90;;;;;;4868892;29;20462;-74
2023/04/30 05:13:36;;;;;;;0.83;0.50;;;10.70;99.90;;;;;;4863998;29;20545;-74
2023/04/30 05:16:05;;;;;;;3.17;2.87;;;10.70;99.90;;;;;;4863728;29;20491;-75
2023/04/30 05:18:33;;;;;;;0.60;0.20;;;10.70;99.90;;;;;;4871532;29;20462;-74
2023/04/30 05:21:00;;;;;;;0.60;0.20;;;10.70;99.90;;;;;;4890658;29;20458;-74
2023/04/30 05:23:28;;;;;;;4.20;0.80;;;10.70;99.90;;;;;;4882741;29;20448;-75
2023/04/30 05:25:56;;;;;;;0.83;0.20;;;10.70;99.90;;;;;;4885994;29;20470;-75
2023/04/30 05:28:25;;;;;;;0.60;0.13;;;10.80;99.90;;;;;;4891169;29;20443;-74
2023/04/30 05:30:53;;;;;;;0.60;0.37;;;10.70;99.90;;;;;;4889645;29;20452;-75
2023/04/30 05:33:21;;;;;;;1.63;0.80;;;10.70;99.90;;;;;;4873650;29;20855;-74
2023/04/30 05:35:49;;;;;;;0.60;0.20;;;10.70;99.90;;;;;;4871529;29;20901;-74
2023/04/30 05:38:17;;;;;;;0.97;0.87;;;10.80;99.90;;;;;;4871409;29;20470;-73
2023/04/30 05:40:44;;;;;;;2.73;1.80;;;10.80;99.90;;;;;;4864197;29;21022;-74
2023/04/30 05:43:12;;;;;;;1.30;1.13;;;10.80;99.90;;;;;;4863061;29;20488;-75
2023/04/30 05:45:41;;;;;;;1.80;1.70;;;10.80;99.90;;;;;;4862439;29;20489;-74
2023/04/30 05:48:09;;;;;;;0.60;0.40;;;10.80;99.90;;;;;;4863184;29;20883;-75
2023/04/30 05:50:37;;;;;;;2.80;2.43;;;10.80;99.90;;;;;;4862379;29;20599;-74
2023/04/30 05:53:05;;;;;;;0.60;0.10;;;10.90;99.90;;;;;;4868115;29;20460;-75
2023/04/30 05:55:33;;;;;;;0.60;0.10;;;10.90;99.90;;;;;;4872085;29;20868;-75
2023/04/30 05:58:01;;;;;;;0.60;0.10;;;11.00;99.90;;;;;;4870497;29;21065;-77
2023/04/30 06:00:29;;;;;;;1.23;0.77;;;11.00;99.90;;;;;;4880239;29;20471;-75
2023/04/30 06:02:58;;;;;;;1.33;1.23;;;11.00;99.90;;;;;;4878291;29;20973;-75
2023/04/30 06:05:26;;;;;;;3.47;3.27;;;11.10;99.90;;;;;;4879999;29;20478;-75
2023/04/30 06:07:54;;;;;;;0.60;0.30;;;11.10;99.90;;;;;;4880485;29;20507;-74
2023/04/30 06:10:22;;;;;;;0.60;0.10;;;11.10;99.90;;;;;;4880407;29;20461;-75
2023/04/30 06:12:50;;;;;;;0.70;0.30;;;11.20;99.90;;;;;;4879646;29;20463;-75
2023/04/30 06:15:17;;;;;;;0.60;0.20;;;11.20;99.90;;;;;;4880139;29;20459;-76
2023/04/30 06:17:46;;;;;;;0.60;0.30;;;11.30;99.90;;;;;;4874688;29;20507;-73
2023/04/30 06:20:15;;;;;;;0.97;0.87;;;11.30;99.90;;;;;;4862138;29;20484;-76
2023/04/30 06:22:43;;;;;;;0.60;0.10;;;11.40;99.90;;;;;;4861073;29;20451;-75
2023/04/30 06:25:11;;;;;;;0.60;0.10;;;11.40;99.90;;;;;;4860621;29;20476;-76
2023/04/30 06:27:39;;;;;;;0.60;0.10;;;11.50;99.90;;;;;;4861162;29;20977;-75
2023/04/30 06:30:08;;;;;;;0.60;0.20;;;11.60;99.90;;;;;;4860837;29;20452;-73
2023/04/30 06:32:36;;;;;;;0.60;0.10;;;11.60;99.90;;;;;;4861598;29;20883;-74
2023/04/30 06:35:04;;;;;;;0.60;0.10;;;11.70;99.90;;;;;;4860779;29;20495;-74
2023/04/30 06:37:36;;;;;;;0.60;0.20;;;11.70;99.90;;;;;;4866493;29;20862;-73
2023/04/30 06:40:05;;;;;;;0.60;0.10;;;11.70;99.90;;;;;;4872143;29;20459;-75
2023/04/30 06:42:34;;;;;;;2.63;1.57;;;11.70;99.90;;;;;;4861658;29;20463;-74
2023/04/30 06:45:02;;;;;;;0.70;0.40;;;11.80;99.90;;;;;;4861933;29;20484;-74
2023/04/30 06:47:33;;;;;;;0.60;0.10;;;11.80;99.90;;;;;;4861863;29;20452;-77
2023/04/30 06:50:02;;;;;;;0.60;0.20;;;;;;;;;;4867912;29;20942;-74
2023/04/30 06:52:30;;;;;;;0.60;0.30;;;12.00;99.90;;;;;;4879717;29;20470;-74
2023/04/30 06:55:00;;;;;;;3.57;1.13;;;12.10;99.90;;;;;;4878926;29;20507;-75
2023/04/30 06:57:28;;;;;;;0.60;0.10;;;12.10;99.90;;;;;;4881591;29;20497;-75
2023/04/30 06:59:56;;;;;;;2.50;2.27;;;12.10;99.90;;;;;;4877747;29;21020;-75
2023/04/30 07:02:24;;;;;;;1.57;0.97;;;12.10;99.90;;;;;;4869551;29;20473;-74
2023/04/30 07:04:53;;;;;;;0.60;0.27;;;12.10;99.90;;;;;;4860745;29;20464;-74
2023/04/30 07:07:22;;;;;;;0.60;0.10;;;12.10;99.90;;;;;;4860864;29;20987;-75
2023/04/30 07:09:51;;;;;;;0.60;0.20;;;12.10;99.90;;;;;;4861062;29;20479;-75
2023/04/30 07:12:21;;;;;;;0.70;0.43;;;12.20;99.90;;;;;;4870595;29;20524;-74
2023/04/30 07:14:48;;;;;;;0.60;0.40;;;12.30;99.90;;;;;;4879248;29;20533;-74
2023/04/30 07:17:17;;;;;;;0.60;0.10;;;12.30;99.90;;;;;;4879100;29;20482;-76
2023/04/30 07:19:45;;;;;;;0.60;0.10;;;12.40;99.90;;;;;;4879501;29;20498;-76
2023/04/30 07:22:13;;;;;;;1.90;1.80;;;12.40;99.90;;;;;;4878128;29;20496;-74
2023/04/30 07:24:41;;;;;;;0.60;0.10;;;12.50;99.90;;;;;;4869692;29;20481;-75
2023/04/30 07:27:08;;;;;;;1.03;0.70;;;12.60;99.90;;;;;;4877938;29;20934;-74
2023/04/30 07:29:38;;;;;;;0.60;0.30;;;12.60;99.90;;;;;;4881662;29;20454;-75
2023/04/30 07:32:06;;;;;;;2.73;2.53;;;12.60;99.90;;;;;;4872269;29;20449;-76
2023/04/30 07:34:33;;;;;;;1.33;0.37;;;12.70;99.90;;;;;;4865868;29;20483;-74
2023/04/30 07:37:02;;;;;;;0.60;0.10;;;12.70;99.90;;;;;;4865693;29;20484;-76
2023/04/30 07:39:30;;;;;;;0.60;0.30;;;12.70;99.90;;;;;;4868331;29;20911;-75
2023/04/30 07:41:57;;;;;;;1.13;1.03;;;12.80;99.90;;;;;;4878399;29;20523;-74
2023/04/30 07:44:25;;;;;;;0.60;0.10;;;12.80;99.90;;;;;;4878156;29;20478;-76
2023/04/30 07:46:54;;;;;;;0.60;0.20;;;12.90;99.90;;;;;;4876941;29;20458;-76
2023/04/30 07:49:22;;;;;;;0.73;0.10;;;12.90;99.90;;;;;;4878342;29;20450;-75
2023/04/30 07:51:50;;;;;;;0.60;0.10;;;13.10;99.90;;;;;;4878512;29;20955;-76
2023/04/30 07:54:18;;;;;;;3.17;0.60;;;13.10;99.90;;;;;;4878720;29;20473;-75
2023/04/30 07:56:47;;;;;;;0.70;0.43;;;13.20;99.90;;;;;;4864081;29;20873;-77
2023/04/30 07:59:16;;;;;;;0.60;0.33;;;13.30;99.90;;;;;;4859533;29;21003;-75
2023/04/30 08:01:44;;;;;;;0.60;0.40;;;13.40;99.90;;;;;;4859433;29;20458;-76
2023/04/30 08:04:13;;;;;;;0.60;0.10;;;13.50;99.90;;;;;;4874684;29;20542;-76
2023/04/30 08:06:41;;;;;;;1.33;1.23;;;13.50;99.90;;;;;;4877761;29;20459;-76
2023/04/30 08:09:10;;;;;;;0.60;0.20;;;13.50;99.90;;;;;;4862561;29;20462;-75
2023/04/30 08:11:38;;;;;;;0.60;0.20;;;13.60;99.90;;;;;;4862456;29;20826;-76
2023/04/30 08:14:05;;;;;;;0.60;0.17;;;13.70;99.90;;;;;;4871774;29;20469;-74
2023/04/30 08:16:34;;;;;;;0.60;0.10;;;13.70;99.90;;;;;;4875040;29;20484;-75
2023/04/30 08:19:02;;;;;;;0.80;0.50;;;13.70;99.90;;;;;;4870691;29;20489;-78
2023/04/30 08:21:32;;;;;;;0.60;0.10;;;13.70;99.90;;;;;;4876728;29;20453;-78
2023/04/30 08:24:00;;;;;;;0.60;0.10;;;13.70;99.90;;;;;;4880761;29;20482;-81
2023/04/30 08:26:28;;;;;;;0.60;0.10;;;13.80;99.90;;;;;;4884250;29;20448;-75
2023/04/30 08:28:55;;;;;;;2.20;2.10;;;13.80;99.90;;;;;;4890544;29;20452;-80
2023/04/30 08:31:23;;;;;;;0.80;0.67;;;13.90;99.90;;;;;;4890918;29;20457;-80
2023/04/30 08:33:51;;;;;;;1.00;0.30;;;14.00;99.90;;;;;;4882006;29;20975;-77
2023/04/30 08:36:19;;;;;;;0.60;0.20;;;14.00;99.90;;;;;;4877935;29;20501;-78
2023/04/30 08:38:48;;;;;;;0.60;0.10;;;14.20;99.90;;;;;;4878730;29;20495;-79
2023/04/30 08:41:16;;;;;;;2.40;1.23;;;14.20;99.90;;;;;;4884825;29;20454;-79
2023/04/30 08:43:44;;;;;;;0.60;0.23;;;14.20;99.90;;;;;;4889971;29;20468;-78
2023/04/30 08:46:13;;;;;;;2.10;2.00;;;14.20;99.90;;;;;;4889521;29;20488;-78
2023/04/30 08:48:41;;;;;;;0.60;0.17;;;14.20;99.90;;;;;;4887636;29;20453;-79
2023/04/30 08:51:09;;;;;;;0.60;0.10;;;14.20;99.90;;;;;;4885120;29;20461;-77
2023/04/30 08:53:38;;;;;;;8.40;1.60;;;14.30;99.90;;;;;;4883871;29;20465;-76
2023/04/30 08:56:10;;;;;;;0.80;0.50;;;14.30;99.90;;;;;;4876418;29;20852;-78
2023/04/30 08:58:38;;;;;;;0.60;0.10;;;;;;;;;;4870040;29;20518;-78
2023/04/30 09:01:07;;;;;;;0.60;0.17;;;14.40;99.90;;;;;;4886951;29;20452;-79
2023/04/30 09:03:36;;;;;;;0.60;0.20;;;14.50;99.90;;;;;;4885168;29;20485;-80
2023/04/30 09:06:04;;;;;;;0.83;0.73;;;14.50;99.90;;;;;;4885356;29;20974;-79
2023/04/30 09:08:42;;;;;;;0.60;0.10;;;14.60;99.90;;;;;;4883619;29;20968;-79
2023/04/30 09:11:25;;;;;;;0.60;0.10;;;14.60;99.90;;;;;;4869260;29;20516;-78
2023/04/30 09:13:54;;;;;;;2.20;0.53;;;14.80;99.90;;;;;;4875083;29;20445;-79
2023/04/30 09:16:23;;;;;;;0.60;0.10;;;14.90;99.90;;;;;;4868132;29;20561;-78
2023/04/30 09:18:52;;;;;;;0.60;0.20;;;14.90;99.90;;;;;;4876176;29;20512;-78
2023/04/30 09:21:32;;;;;;;0.60;0.17;;;15.00;99.90;;;;;;4875262;29;20489;-78
2023/04/30 09:24:03;;;;;;;6.33;0.97;;;15.00;99.90;;;;;;4878338;29;20458;-77
2023/04/30 09:26:35;;;;;;;0.60;0.10;;;15.00;99.90;;;;;;4882650;29;20838;-78
2023/04/30 09:29:06;;;;;;;0.60;0.10;;;15.10;99.90;;;;;;4867687;29;20448;-77
2023/04/30 09:31:35;;;;;;;0.70;0.53;;;15.30;99.90;;;;;;4872400;29;20455;-80
2023/04/30 09:34:04;;;;;;;0.90;0.57;;;15.30;99.90;;;;;;4874042;29;20489;-79
2023/04/30 09:36:33;;;;;;;0.60;0.20;;;15.40;99.90;;;;;;4891392;29;20888;-79
2023/04/30 09:39:07;;;;;;;1.30;0.73;;;15.30;99.90;;;;;;4884759;29;20994;-79
2023/04/30 09:41:40;;;;;;;0.60;0.10;;;;;;;;;;4869062;29;20981;-78
2023/04/30 09:44:07;;;;;;;0.60;0.10;;;15.50;99.90;;;;;;4871809;29;20878;-78
2023/04/30 09:46:37;;;;;;;0.70;0.50;;;15.50;99.90;;;;;;4872194;29;20527;-78
2023/04/30 09:49:06;;;;;;;0.60;0.10;;;15.60;99.90;;;;;;4875703;29;20989;-79
2023/04/30 09:51:34;;;;;;;0.60;0.10;;;15.60;99.90;;;;;;4886276;29;20922;-79
2023/04/30 09:54:03;;;;;;;0.60;0.10;;;15.80;99.90;;;;;;4876708;29;20795;-78
2023/04/30 09:56:35;;;;;;;0.60;0.20;;;15.80;99.90;;;;;;4869162;29;20980;-78
2023/04/30 09:59:08;;;;;;;0.60;0.20;;;16.00;99.90;;;;;;4880274;29;20494;-77
2023/04/30 10:01:37;;;;;;;0.87;0.53;;;;;;;;;;4875621;29;20480;-78
2023/04/30 10:04:08;;;;;;;0.60;0.10;;;16.00;99.90;;;;;;4878772;29;20447;-79
2023/04/30 10:06:36;;;;;;;1.73;0.60;;;16.10;99.90;;;;;;4880623;29;20989;-78
2023/04/30 10:09:06;;;;;;;0.60;0.10;;;;;;;;;;4881099;29;20449;-77
2023/04/30 10:11:37;;;;;;;2.30;0.50;;;16.20;99.90;;;;;;4888419;29;20547;-78
2023/04/30 10:14:10;;;;;;;1.10;0.73;;;15.30;99.90;;;;;;4887941;29;20520;-79
2023/04/30 10:16:47;;;;;;;0.60;0.20;;;16.20;99.90;;;;;;4887467;29;20539;-78
2023/04/30 10:19:19;;;;;;;0.60;0.10;;;16.20;99.90;;;;;;4887716;29;20484;-78
2023/04/30 10:21:48;;;;;;;0.80;0.20;;;16.30;99.90;;;;;;4879546;29;20451;-80
2023/04/30 10:24:18;;;;;;;0.60;0.10;;;16.30;99.90;;;;;;4887197;29;20475;-79
2023/04/30 10:26:47;;;;;;;1.97;0.70;;;16.40;99.90;;;;;;4892908;29;20481;-79
2023/04/30 10:29:17;;;;;;;0.60;0.10;;;16.40;99.90;;;;;;4890923;29;20452;-79
2023/04/30 10:31:47;;;;;;;0.70;0.50;;;16.40;99.90;;;;;;4894340;29;20464;-78
2023/04/30 10:34:16;;;;;;;0.70;0.37;;;;;;;;;;4908432;23;20494;31
2023/04/30 10:36:48;;;;;;;0.60;0.10;;;16.50;99.90;;;;;;4897473;29;20516;-78
2023/04/30 10:39:19;;;;;;;0.60;0.20;;;16.70;99.90;;;;;;4899232;29;20492;-77
2023/04/30 10:41:47;;;;;;;0.80;0.40;;;16.60;99.90;;;;;;4902604;29;20948;-77
2023/04/30 10:44:23;;;;;;;3.10;1.13;;;;;;;;;;4893249;29;21138;-77
2023/04/30 10:47:02;;;;;;;0.60;0.10;;;;;;;;;;4876142;29;20476;-76
2023/04/30 10:49:30;;;;;;;1.00;0.30;;;16.70;99.90;;;;;;4867965;29;20481;-78
2023/04/30 10:52:00;;;;;;;0.60;0.10;;;16.80;99.90;;;;;;4874907;29;20485;-81
2023/04/30 10:54:29;;;;;;;0.80;0.60;;;16.80;99.90;;;;;;4873235;29;20468;-78
2023/04/30 10:57:25;;;;;;;0.60;0.20;;;;;;;;;;4880253;29;20952;-77
2023/04/30 11:00:20;;;;;;;0.70;0.20;;;17.00;99.90;;;;;;4883140;29;20485;-77
2023/04/30 11:02:48;;;;;;;0.60;0.10;;;17.00;99.90;;;;;;4885418;29;20515;-75
2023/04/30 11:05:17;;;;;;;0.60;0.10;;;;;;;;;;4892447;29;20512;-76
2023/04/30 11:07:49;;;;;;;0.70;0.40;;;;;;;;;;4882785;29;20445;-77
2023/04/30 11:10:21;;;;;;;0.60;0.10;;;17.00;99.90;;;;;;4883611;29;20858;-77
2023/04/30 11:12:50;;;;;;;0.60;0.30;;;17.20;99.90;;;;;;4885788;29;20462;-76
2023/04/30 11:15:26;;;;;;;0.90;0.60;;;17.30;99.90;;;;;;4887077;29;20535;-81
2023/04/30 11:17:59;;;;;;;0.60;0.20;;;17.30;99.90;;;;;;4894825;29;20442;-77
2023/04/30 11:20:28;;;;;;;0.77;0.33;;;;;;;;;;4884481;29;20582;-77
2023/04/30 11:23:22;;;;;;;0.60;0.10;;;17.50;99.90;;;;;;4885139;29;20476;-76
2023/04/30 11:26:07;;;;;;;0.60;0.10;;;17.60;99.90;;;;;;4885780;29;20482;-77
2023/04/30 11:28:37;;;;;;;0.60;0.20;;;17.60;99.90;;;;;;4886243;29;20451;-76
2023/04/30 11:31:06;;;;;;;0.60;0.10;;;17.60;99.90;;;;;;4884807;29;20450;-77
2023/04/30 11:33:35;;;;;;;0.60;0.10;;;;;;;;;;4884009;29;20458;-77
2023/04/30 11:36:03;;;;;;;0.60;0.10;;;17.90;99.90;;;;;;4884284;29;20532;-77
2023/04/30 11:38:35;;;;;;;0.60;0.10;;;18.00;99.90;;;;;;4884529;29;20450;-76
2023/04/30 11:41:03;;;;;;;0.60;0.10;;;18.00;99.90;;;;;;4885142;29;20585;-76
2023/04/30 11:43:32;;;;;;;0.60;0.10;;;18.00;99.90;;;;;;4884584;29;20461;-76
2023/04/30 11:46:07;;;;;;;0.60;0.10;;;18.10;99.90;;;;;;4885543;29;20471;-78
2023/04/30 11:48:37;;;;;;;0.60;0.10;;;18.00;99.90;;;;;;4885269;29;20452;-76
2023/04/30 11:51:15;;;;;;;0.60;0.20;;;18.00;99.90;;;;;;4882560;29;20449;-77
2023/04/30 11:53:45;;;;;;;0.60;0.10;;;18.10;99.90;;;;;;4881669;29;20450;-76
2023/04/30 11:56:13;;;;;;;0.60;0.10;;;18.20;99.90;;;;;;4881016;29;20473;-76
2023/04/30 11:58:41;;;;;;;0.87;0.57;;;18.30;99.90;;;;;;4883301;29;20450;-76
2023/04/30 12:01:10;;;;;;;0.60;0.10;;;18.30;99.90;;;;;;4882934;29;20824;-76
2023/04/30 12:03:42;;;;;;;0.60;0.13;;;18.20;99.90;;;;;;4871971;29;20451;-77
2023/04/30 12:06:11;;;;;;;0.70;0.30;;;18.10;99.90;;;;;;4879035;29;20470;-77
2023/04/30 12:08:41;;;;;;;0.60;0.20;;;;;;;;;;4881293;29;20457;-77
2023/04/30 12:11:21;;;;;;;0.87;0.43;;;18.10;99.90;;;;;;4880906;29;20526;-77
2023/04/30 12:13:53;;;;;;;1.43;0.30;;;18.00;99.90;;;;;;4880940;29;20446;-80
2023/04/30 12:16:23;;;;;;;0.60;0.20;;;18.00;99.90;;;;;;4884110;29;20470;-79
2023/04/30 12:18:51;;;;;;;0.60;0.10;;;18.10;99.90;;;;;;4883090;29;20434;-75
2023/04/30 12:21:21;;;;;;;0.60;0.17;;;18.30;99.90;;;;;;4884161;29;20536;-77
2023/04/30 12:23:49;;;;;;;0.60;0.10;;;18.50;99.90;;;;;;4883028;29;21038;-77
2023/04/30 12:26:17;;;;;;;0.60;0.10;;;18.70;99.90;;;;;;4883389;29;21067;-77
2023/04/30 12:28:47;;;;;;;0.60;0.10;;;18.70;99.90;;;;;;4884673;29;20464;-76
2023/04/30 12:31:17;;;;;;;0.60;0.10;;;18.70;99.90;;;;;;4884383;29;20454;-77
2023/04/30 12:33:55;;;;;;;0.60;0.10;;;18.60;99.90;;;;;;4871550;29;20554;-78
2023/04/30 12:36:31;;;;;;;0.70;0.20;;;18.40;99.90;;;;;;4864262;29;20518;-78
2023/04/30 12:39:06;;;;;;;0.60;0.10;;;18.30;99.90;;;;;;4865597;29;20490;-77
2023/04/30 12:41:36;;;;;;;0.60;0.20;;;18.20;99.90;;;;;;4865403;29;20554;-78
2023/04/30 12:44:14;;;;;;;0.60;0.10;;;;;;;;;;4880273;29;20469;-78
2023/04/30 12:46:42;;;;;;;0.60;0.10;;;18.30;99.90;;;;;;4882830;29;20453;-78
2023/04/30 12:49:12;;;;;;;0.60;0.20;;;18.40;99.90;;;;;;4883853;29;20521;-77
2023/04/30 12:51:42;;;;;;;0.60;0.20;;;18.50;99.90;;;;;;4883450;29;20445;-80
2023/04/30 12:54:10;;;;;;;0.70;0.33;;;18.40;99.90;;;;;;4869048;29;20474;-78
2023/04/30 12:56:39;;;;;;;0.70;0.40;;;18.20;99.90;;;;;;4868413;29;21016;-78
2023/04/30 12:59:15;;;;;;;0.60;0.10;;;18.20;99.90;;;;;;4866392;29;20861;-78
2023/04/30 13:01:45;;;;;;;0.60;0.20;;;18.40;99.90;;;;;;4864820;29;20478;-78
2023/04/30 13:04:14;;;;;;;0.60;0.10;;;18.40;99.90;;;;;;4877968;29;20773;-77
2023/04/30 13:06:42;;;;;;;0.60;0.10;;;18.30;99.90;;;;;;4875758;29;20503;-78
2023/04/30 13:09:11;;;;;;;0.60;0.10;;;18.30;99.90;;;;;;4882345;29;20484;-79
2023/04/30 13:11:39;;;;;;;0.60;0.10;;;18.30;99.90;;;;;;4882406;29;20502;-76
2023/04/30 13:14:09;;;;;;;0.60;0.10;;;18.30;99.90;;;;;;4878930;29;20447;-77
2023/04/30 13:16:37;;;;;;;0.60;0.10;;;18.20;99.90;;;;;;4866008;29;20973;-77
2023/04/30 13:19:07;;;;;;;0.60;0.20;;;18.20;99.90;;;;;;4878168;29;20429;-76
2023/04/30 13:21:36;;;;;;;0.60;0.10;;;18.10;99.90;;;;;;4869643;29;21058;-78
2023/04/30 13:24:04;;;;;;;0.60;0.20;;;18.20;99.90;;;;;;4875861;29;20514;-77
2023/04/30 13:26:32;;;;;;;0.90;0.40;;;18.30;99.90;;;;;;4869440;29;20484;-77
2023/04/30 13:29:00;;;;;;;0.70;0.10;;;18.40;99.90;;;;;;4879306;29;20450;-77
2023/04/30 13:31:28;;;;;;;0.60;0.10;;;18.50;99.90;;;;;;4878955;29;20450;-74
2023/04/30 13:33:56;;;;;;;0.60;0.10;;;18.60;99.90;;;;;;4876348;29;20465;-76
2023/04/30 13:36:24;;;;;;;0.60;0.20;;;18.60;99.90;;;;;;4872962;29;20826;-75
2023/04/30 13:38:53;;;;;;;0.60;0.10;;;18.60;99.90;;;;;;4876665;29;20822;-73
2023/04/30 13:41:21;;;;;;;0.60;0.20;;;18.70;99.90;;;;;;4873435;29;20487;-78
2023/04/30 13:43:49;;;;;;;0.60;0.10;;;18.70;99.90;;;;;;4868561;29;21025;-76
2023/04/30 13:46:17;;;;;;;0.60;0.17;;;18.90;99.90;;;;;;4875480;29;20466;-74
2023/04/30 13:48:47;;;;;;;0.60;0.10;;;18.90;99.90;;;;;;4868268;29;20506;-75
2023/04/30 13:51:14;;;;;;;0.60;0.10;;;19.00;99.90;;;;;;4865744;29;20455;-76
2023/04/30 13:53:43;;;;;;;0.60;0.13;;;19.10;99.90;;;;;;4861847;29;20541;-76
2023/04/30 13:56:14;;;;;;;0.60;0.20;;;19.30;99.90;;;;;;4861893;29;20813;-75
2023/04/30 13:58:42;;;;;;;0.60;0.10;;;19.40;99.90;;;;;;4861715;29;20549;-78
2023/04/30 14:01:10;;;;;;;0.60;0.10;;;19.50;99.90;;;;;;4861560;29;20514;-78
2023/04/30 14:03:38;;;;;;;0.60;0.20;;;19.50;99.90;;;;;;4861616;29;20962;-76
2023/04/30 14:06:06;;;;;;;0.60;0.10;;;19.70;99.90;;;;;;4861061;29;20518;-76
2023/04/30 14:08:34;;;;;;;0.60;0.10;;;19.80;99.90;;;;;;4861896;29;20538;-75
2023/04/30 14:11:02;;;;;;;0.60;0.20;;;19.90;99.90;;;;;;4861483;29;20447;-76
2023/04/30 14:13:32;;;;;;;0.80;0.50;;;20.10;99.90;;;;;;4861749;29;20459;-75
2023/04/30 14:16:01;;;;;;;0.60;0.10;;;20.10;99.90;;;;;;4861201;29;20483;-78
2023/04/30 14:18:29;;;;;;;0.60;0.20;;;20.10;99.90;;;;;;4861012;29;20793;-76
2023/04/30 14:20:57;;;;;;;0.60;0.10;;;20.10;99.90;;;;;;4862226;29;20544;-77
2023/04/30 14:23:27;;;;;;;0.60;0.13;;;20.00;99.90;;;;;;4868571;29;20458;-76
2023/04/30 14:25:55;;;;;;;0.60;0.10;;;19.80;99.90;;;;;;4864879;29;20471;-77
2023/04/30 14:28:24;;;;;;;0.60;0.10;;;19.70;99.90;;;;;;4866455;29;20443;-77
2023/04/30 14:30:53;;;;;;;0.60;0.20;;;19.70;99.90;;;;;;4866497;29;20838;-79
2023/04/30 14:33:21;;;;;;;0.60;0.20;;;19.70;99.90;;;;;;4879615;29;20454;-80
2023/04/30 14:35:48;;;;;;;0.60;0.10;;;19.70;99.90;;;;;;4874813;29;20475;-77
2023/04/30 14:38:16;;;;;;;0.60;0.20;;;19.70;99.90;;;;;;4868776;29;20457;-78
2023/04/30 14:40:44;;;;;;;0.60;0.10;;;19.60;99.90;;;;;;4874006;29;20874;-76
2023/04/30 14:43:12;;;;;;;0.60;0.20;;;19.70;99.90;;;;;;4867135;29;20451;-77
2023/04/30 14:45:40;;;;;;;0.60;0.10;;;19.70;99.90;;;;;;4871344;29;20559;-78
2023/04/30 14:48:09;;;;;;;0.60;0.20;;;;;;;;;;4870020;29;20476;-77
2023/04/30 14:50:37;;;;;;;0.60;0.10;;;20.10;99.90;;;;;;4868802;29;20573;-78
2023/04/30 14:53:08;;;;;;;0.60;0.20;;;20.00;99.90;;;;;;4867021;29;20456;-78
2023/04/30 14:55:36;;;;;;;0.60;0.10;;;20.00;99.90;;;;;;4866095;29;20508;-77
2023/04/30 14:58:04;;;;;;;1.17;0.23;;;19.90;99.90;;;;;;4861029;29;20463;-80
2023/04/30 15:00:32;;;;;;;0.60;0.10;;;19.90;99.90;;;;;;4874314;29;20450;-78
2023/04/30 15:03:00;;;;;;;0.60;0.10;;;19.70;99.90;;;;;;4872882;29;20547;-78
2023/04/30 15:05:30;;;;;;;0.60;0.20;;;19.60;99.90;;;;;;4874349;29;20464;-78
2023/04/30 15:07:57;;;;;;;0.60;0.20;;;19.50;99.90;;;;;;4877512;29;20446;-77
2023/04/30 15:10:25;;;;;;;0.60;0.20;;;19.40;99.90;;;;;;4879499;29;20451;-77
2023/04/30 15:12:53;;;;;;;0.60;0.10;;;19.30;99.90;;;;;;4879877;29;20502;-77
2023/04/30 15:15:26;;;;;;;0.60;0.20;;;19.40;99.90;;;;;;4874822;29;20471;-77
2023/04/30 15:17:54;;;;;;;0.60;0.10;;;19.30;99.90;;;;;;4867837;29;20474;-78
2023/04/30 15:20:22;;;;;;;0.60;0.10;;;19.30;99.90;;;;;;4864394;29;20529;-75
2023/04/30 15:22:53;;;;;;;19.63;6.50;;;19.20;99.90;;;;;;4867664;29;20493;-76
2023/04/30 15:25:22;;;;;;;0.60;0.10;;;19.20;99.90;;;;;;4870126;29;20566;-77
2023/04/30 15:27:50;;;;;;;0.70;0.40;;;19.30;99.90;;;;;;4870449;29;20969;-79
2023/04/30 15:30:20;;;;;;;0.60;0.20;;;19.30;99.90;;;;;;4860487;29;20463;-78
2023/04/30 15:32:48;;;;;;;9.63;0.60;;;19.30;99.90;;;;;;4860424;29;20451;-77
2023/04/30 15:35:17;;;;;;;0.60;0.20;;;19.30;99.90;;;;;;4860357;29;20929;-77
2023/04/30 15:37:45;;;;;;;0.60;0.10;;;19.30;99.90;;;;;;4860279;29;20451;-76
2023/04/30 15:40:14;;;;;;;0.83;0.43;;;19.30;99.90;;;;;;4859935;29;20443;-76
2023/04/30 15:42:42;;;;;;;0.60;0.10;;;19.30;99.90;;;;;;4866448;29;20482;-75
2023/04/30 15:45:11;;;;;;;0.60;0.10;;;19.40;99.90;;;;;;4873400;29;20478;-74
2023/04/30 15:47:39;;;;;;;1.43;1.27;;;19.40;99.90;;;;;;4870153;29;20443;-74
2023/04/30 15:50:08;;;;;;;0.60;0.20;;;19.50;99.90;;;;;;4866968;29;20486;-78
2023/04/30 15:52:36;;;;;;;0.60;0.10;;;19.80;99.90;;;;;;4859716;29;20451;-74
2023/04/30 15:55:08;;;;;;;0.60;0.10;;;20.00;99.90;;;;;;4871043;29;20908;-74
2023/04/30 15:57:37;;;;;;;1.10;0.47;;;20.30;99.90;;;;;;4874821;29;20443;-76
2023/04/30 16:00:06;;;;;;;0.60;0.20;;;20.50;99.90;;;;;;4869907;29;20446;-76
2023/04/30 16:02:34;;;;;;;0.60;0.10;;;20.70;99.90;;;;;;4864503;29;20989;-76
2023/04/30 16:05:03;;;;;;;0.60;0.20;;;20.90;99.90;;;;;;4868858;29;20474;-75
2023/04/30 16:07:31;;;;;;;0.60;0.10;;;21.10;99.90;;;;;;4869604;29;20450;-76
2023/04/30 16:10:00;;;;;;;0.60;0.10;;;21.10;99.70;;;;;;4862605;29;20458;-75
2023/04/30 16:12:28;;;;;;;0.70;0.37;;;20.90;97.10;;;;;;4862178;29;20584;-74
2023/04/30 16:14:58;;;;;;;0.60;0.10;;;20.80;97.30;;;;;;4876093;29;20471;-76
2023/04/30 16:17:25;;;;;;;0.70;0.30;;;20.70;97.50;;;;;;4865752;29;20462;-77
2023/04/30 16:19:53;;;;;;;0.60;0.10;;;20.50;98.40;;;;;;4867820;29;20545;-75
2023/04/30 16:22:23;;;;;;;0.60;0.10;;;20.20;98.90;;;;;;4878214;29;20490;-78
2023/04/30 16:24:51;;;;;;;0.60;0.10;;;20.10;99.90;;;;;;4878422;29;20847;-77
2023/04/30 16:27:18;;;;;;;0.60;0.20;;;20.00;99.90;;;;;;4879224;29;20494;-77
2023/04/30 16:29:46;;;;;;;0.60;0.20;;;20.00;99.90;;;;;;4878427;29;20466;-76
2023/04/30 16:32:16;;;;;;;0.60;0.20;;;19.90;99.90;;;;;;4872566;29;20451;-79
2023/04/30 16:34:44;;;;;;;0.60;0.10;;;19.90;99.90;;;;;;4876233;29;20482;-76
2023/04/30 16:37:12;;;;;;;0.60;0.10;;;19.90;99.90;;;;;;4867354;29;20503;-75
2023/04/30 16:39:40;;;;;;;0.60;0.20;;;;;;;;;;4867900;29;20813;-77
2023/04/30 16:42:08;;;;;;;0.60;0.20;;;19.70;99.90;;;;;;4891079;29;20486;-77
2023/04/30 16:44:36;;;;;;;0.60;0.10;;;;;;;;;;4892720;29;20487;-76
2023/04/30 16:47:04;;;;;;;0.60;0.10;;;19.60;99.90;;;;;;4896246;29;20438;-75
2023/04/30 16:49:33;;;;;;;0.60;0.10;;;19.60;99.90;;;;;;4899692;29;20456;-76
2023/04/30 16:52:02;;;;;;;0.60;0.20;;;19.60;99.90;;;;;;4889216;29;20509;-77
2023/04/30 16:54:30;;;;;;;1.47;0.20;;;19.60;99.90;;;;;;4869470;29;20474;-77
2023/04/30 16:56:58;;;;;;;0.60;0.20;;;19.60;99.90;;;;;;4870939;29;20519;-77
2023/04/30 16:59:26;;;;;;;0.60;0.20;;;19.70;99.90;;;;;;4880285;29;20462;-77
2023/04/30 17:01:57;;;;;;;0.60;0.10;;;19.80;99.90;;;;;;4887826;29;20451;-76
2023/04/30 17:04:25;;;;;;;0.70;0.20;;;19.80;99.90;;;;;;4886079;29;20484;-76